Impacts TAF Board INFO
FOR SITUATIONAL AWARENESS. NOT TO BE USED FOR FLIGHT PLANNING PURPOSES.
IDs:

KFLL - Ft Lauderdale-Hollyw, FL, US

Issued at 0520 UTC 23 Sep 2017
Updated at 0723 UTC 23 Sep 2017
Potential Impact None Slight Moderate High
Time0653Z 23/08Z 23/09Z 23/10Z 23/11Z 23/12Z 23/13Z 23/14Z 23/15Z 23/16Z 23/17Z 23/18Z 23/19Z 23/20Z>>
Type OBS PRVL PRVL PRVL PRVL PRVL PRVL PRVL PRVL
  [PRB30]  
PRVL
  [PRB30]  
PRVL
  [PRB30]  
PRVL
  [PRB30]  
PRVL PRVL
VIS 10 >6 >6 >6 >6 >6 >6 >6 >6
  [3]  
>6
  [3]  
>6
  [3]  
>6
  [3]  
>6 >6
CIG -- -- -- -- -- -- 50 50 50
  [25]  
50
  [25]  
50
  [25]  
50
  [25]  
50 50
Cover SCT SCT SCT SCT SCT SCT BKN BKN BKN
  [OVC]  
BKN
  [OVC]  
BKN
  [OVC]  
BKN
  [OVC]  
BKN BKN
FltCat VFR VFR VFR VFR VFR VFR VFR VFR VFR
  [MVFR]  
VFR
  [MVFR]  
VFR
  [MVFR]  
VFR
  [MVFR]  
VFR VFR
WX -- -- -- -- -- -- VCSH VCSH VCSH
  [TSRA]  
VCSH
  [TSRA]  
VCSH
  [TSRA]  
VCSH
  [TSRA]  
VCSH VCSH
WDir 90 60 60 60 60 60 40 40 40
[40]
40
[40]
40
[40]
40
[40]
40 40
WSpd 4 5 5 5 5 5 10 10 10
  [10]  
10
  [10]  
10
  [10]  
10
  [10]  
10 10
WGst -- -- -- -- -- -- -- -- --
  [--]  
--
  [--]  
--
  [--]  
--
  [--]  
-- --

Raw TAF
KFLL 230520Z 2306/2406 06005KT P6SM FEW023 SCT060 SCT110
  FM231300 04010KT P6SM VCSH SCT025 BKN050
  PROB30 2315/2319 3SM TSRA SCT015 BKN025CB OVC040
  FM240000 02005KT P6SM FEW015 SCT030 BKN250


Raw METAR
KFLL 230653Z 09004KT 10SM SCT017 SCT130 27/26 A2981 RMK AO2 SLP093 T02670256
KFLL 230553Z 09006KT 10SM SCT019 SCT110 26/26 A2982 RMK AO2 SLP098 60054 T02610256 10272 20239 58008
KFLL 230453Z 04004KT 10SM FEW023 SCT060 SCT110 27/25 A2983 RMK AO2 SLP102 T02670250 403060239

METAR Board
Radar Display
Forecast Discussion

FOR SITUATIONAL AWARENESS. NOT TO BE USED FOR FLIGHT PLANNING PURPOSES.